Lindsborg, Kansas
Current Conditions -  °F | °C
As of 8:53 AM on Saturday 20 Dec 2014 (Local Time) from KSLN Reporting Station
Moderate Fog Moderate Fog  
Wind Chill: 26°   Ceiling: 200
Heat Index: 32°   Visibility: 0.25mi
Dew Point: 31°   Wind: 6mph
Humidity: 96%   Direction: 180°S
Pressure: 30.13"   Gusts: NA
Location:  38.57°N, 97.67°W
Report Text: KSLN 201453Z 18005KT 1/4SM FG VV002 00/M01 A3013 RMK AO2 SLP214 T00001006 51004
Loading
Personal Weather Stations






























Interactive Weather Map New forecast layout! Learn more

10-Day Weather Forecast

Advertisements
Track Severe Weather on mobile